Aneta, North Dakota
Current Conditions -  °F | °C
As of 1:58 PM on Monday 24 Nov 2014 (Local Time) from KRDR Reporting Station
Clear Clear  
Wind Chill:   Ceiling: Unl
Heat Index: 20°   Visibility: 10mi
Dew Point: 10°   Wind: 23mph
Humidity: 66%   Direction: 10°N
Pressure: 29.83"   Gusts: 31mph
Location:  47.68°N, 97.99°W
Report Text: KRDR 241958Z AUTO 01020G27KT 10SM CLR M07/M12 A2983 RMK AO2 SLP124 T10691123
Loading
Personal Weather Stations






























Interactive Weather Map New forecast layout! Learn more

10-Day Weather Forecast

Advertisements
Track Severe Weather on mobile